createdAt,value
2018-10-18T00:01:28.571Z,15.83
2018-10-18T00:03:56.266Z,12.70
2018-10-18T00:06:23.973Z,12.57
2018-10-18T00:08:51.640Z,11.07
2018-10-18T00:11:19.404Z,13.63
2018-10-18T00:13:50.929Z,12.53
2018-10-18T00:16:18.567Z,14.47
2018-10-18T00:18:46.248Z,13.70
2018-10-18T00:21:13.952Z,15.73
2018-10-18T00:23:41.572Z,11.07
2018-10-18T00:26:09.285Z,13.13
2018-10-18T00:28:37.008Z,14.37
2018-10-18T00:31:04.946Z,13.93
2018-10-18T00:33:32.629Z,14.63
2018-10-18T00:36:00.330Z,15.33
2018-10-18T00:38:27.977Z,14.20
2018-10-18T00:40:55.847Z,10.97
2018-10-18T00:43:23.542Z,13.30
2018-10-18T00:45:51.253Z,14.77
2018-10-18T00:48:18.948Z,14.47
2018-10-18T00:50:46.868Z,14.70
2018-10-18T00:53:14.591Z,14.40
2018-10-18T00:55:42.291Z,12.87
2018-10-18T00:58:09.942Z,12.37
2018-10-18T01:00:37.664Z,12.47
2018-10-18T01:03:05.659Z,16.60
2018-10-18T01:05:33.371Z,12.50
2018-10-18T01:08:01.054Z,15.80
2018-10-18T01:10:28.704Z,14.33
2018-10-18T01:12:56.448Z,11.97
2018-10-18T01:15:24.164Z,14.00
2018-10-18T01:17:51.877Z,13.43
2018-10-18T01:20:19.772Z,12.67
2018-10-18T01:22:47.343Z,11.10
2018-10-18T01:25:18.557Z,14.77
2018-10-18T01:27:46.183Z,11.27
2018-10-18T01:30:14.051Z,14.80
2018-10-18T01:32:41.635Z,12.30
2018-10-18T01:35:09.372Z,15.40
2018-10-18T01:37:37.032Z,14.60
2018-10-18T01:40:04.756Z,11.27
2018-10-18T01:42:32.400Z,15.90
2018-10-18T01:45:00.185Z,14.13
2018-10-18T01:47:27.880Z,14.27
2018-10-18T01:49:55.579Z,12.93
2018-10-18T01:52:23.267Z,16.03
2018-10-18T01:54:50.944Z,14.97
2018-10-18T01:57:18.647Z,17.37
2018-10-18T01:59:46.288Z,15.73
2018-10-18T02:02:14.170Z,13.73
2018-10-18T02:04:41.839Z,15.97
2018-10-18T02:07:09.534Z,15.17
2018-10-18T02:09:37.252Z,15.80
2018-10-18T02:12:05.508Z,15.10
2018-10-18T02:14:33.167Z,17.80
2018-10-18T02:17:00.837Z,13.50
2018-10-18T02:19:28.526Z,14.37
2018-10-18T02:21:56.244Z,15.60
2018-10-18T02:24:24.233Z,14.03
2018-10-18T02:26:51.833Z,12.07
2018-10-18T02:29:19.557Z,16.13
2018-10-18T02:31:47.276Z,12.63
2018-10-18T02:34:16.135Z,17.00
2018-10-18T02:36:43.892Z,12.03
2018-10-18T02:39:11.563Z,14.93
2018-10-18T02:41:39.223Z,11.53
2018-10-18T02:44:07.020Z,15.93
2018-10-18T02:46:34.766Z,14.00
2018-10-18T02:49:02.558Z,11.97
2018-10-18T02:51:30.224Z,14.37
2018-10-18T02:53:57.884Z,15.00
2018-10-18T02:56:25.572Z,17.03
2018-10-18T02:58:53.265Z,13.50
2018-10-18T03:01:24.119Z,13.07
2018-10-18T03:03:51.852Z,17.27
2018-10-18T03:06:19.644Z,14.60
2018-10-18T03:08:47.385Z,17.73
2018-10-18T03:11:15.093Z,16.80
2018-10-18T03:13:42.792Z,14.57
2018-10-18T03:16:10.649Z,13.10
2018-10-18T03:18:38.263Z,15.27
2018-10-18T03:21:05.980Z,10.97
2018-10-18T03:23:33.679Z,15.53
2018-10-18T03:26:01.367Z,15.60
2018-10-18T03:28:29.060Z,19.10
2018-10-18T03:30:56.847Z,12.50
2018-10-18T03:33:24.580Z,13.33
2018-10-18T03:35:52.269Z,12.60
2018-10-18T03:38:19.936Z,11.17
2018-10-18T03:40:47.744Z,16.47
2018-10-18T03:43:15.416Z,14.80
2018-10-18T03:45:43.092Z,13.70
2018-10-18T03:48:10.845Z,13.50
2018-10-18T03:50:38.372Z,15.47
2018-10-18T03:53:06.072Z,15.17
2018-10-18T03:55:33.784Z,14.17
2018-10-18T03:58:01.528Z,15.33
2018-10-18T04:00:29.240Z,12.07
2018-10-18T04:02:56.916Z,12.27
2018-10-18T04:05:24.615Z,10.43
2018-10-18T04:07:52.435Z,15.83
2018-10-18T04:10:20.202Z,12.27
2018-10-18T04:12:47.957Z,15.20
2018-10-18T04:15:19.645Z,14.27
2018-10-18T04:17:47.364Z,13.80
2018-10-18T04:20:15.016Z,15.60
2018-10-18T04:22:42.698Z,14.40
2018-10-18T04:25:10.388Z,17.20
2018-10-18T04:27:38.128Z,14.70
2018-10-18T04:30:06.058Z,16.00
2018-10-18T04:32:33.684Z,18.60
2018-10-18T04:35:01.404Z,14.70
2018-10-18T04:37:29.144Z,13.10
2018-10-18T04:40:00.139Z,14.87
2018-10-18T04:42:27.911Z,19.10
2018-10-18T04:44:55.568Z,13.70
2018-10-18T04:47:23.416Z,17.60
2018-10-18T04:49:50.976Z,16.13
2018-10-18T04:52:18.709Z,14.70
2018-10-18T04:54:46.437Z,18.83
2018-10-18T04:57:14.135Z,16.37
2018-10-18T04:59:41.856Z,23.67
2018-10-18T05:02:09.607Z,26.83
2018-10-18T05:04:37.296Z,30.23
2018-10-18T05:07:05.048Z,28.33
2018-10-18T05:09:32.913Z,26.10
2018-10-18T05:12:00.660Z,21.00
2018-10-18T05:14:28.335Z,23.47
2018-10-18T05:16:56.025Z,21.67
2018-10-18T05:19:23.716Z,22.47
2018-10-18T05:21:51.415Z,20.17
2018-10-18T05:24:19.168Z,22.37
2018-10-18T05:26:46.876Z,23.47
2018-10-18T05:29:14.647Z,20.73
2018-10-18T05:31:42.445Z,21.57
2018-10-18T05:34:10.060Z,26.30
2018-10-18T05:36:37.747Z,21.50
2018-10-18T05:39:10.676Z,20.97
2018-10-18T05:41:38.326Z,23.00
2018-10-18T05:44:06.111Z,20.60
2018-10-18T05:46:34.047Z,23.57
2018-10-18T05:49:01.728Z,25.40
2018-10-18T05:51:29.373Z,23.17
2018-10-18T05:53:57.208Z,21.73
2018-10-18T05:56:24.867Z,29.47
2018-10-18T05:58:52.711Z,22.20
2018-10-18T06:01:20.517Z,22.70
2018-10-18T06:03:48.260Z,25.50
2018-10-18T06:06:16.100Z,24.70
2018-10-18T06:08:43.975Z,20.70
2018-10-18T06:11:23.108Z,20.07
2018-10-18T06:13:51.412Z,19.90
2018-10-18T06:16:19.386Z,21.27
2018-10-18T06:18:47.235Z,25.20
2018-10-18T06:21:15.045Z,31.00
2018-10-18T06:23:42.856Z,21.90
2018-10-18T06:26:14.423Z,22.73
2018-10-18T06:28:42.283Z,27.17
2018-10-18T06:31:10.149Z,20.80
2018-10-18T06:33:38.016Z,23.50
2018-10-18T06:36:05.856Z,22.17
2018-10-18T06:38:33.708Z,24.23
2018-10-18T06:41:01.617Z,30.70
2018-10-18T06:43:33.776Z,22.97
2018-10-18T06:46:01.640Z,22.60
2018-10-18T06:48:29.441Z,23.73
2018-10-18T06:50:57.240Z,23.17
2018-10-18T06:53:25.092Z,22.03
2018-10-18T06:55:52.967Z,18.67
2018-10-18T06:58:20.720Z,28.40
2018-10-18T07:00:48.528Z,23.90
2018-10-18T07:03:16.344Z,23.97
2018-10-18T07:05:44.157Z,29.40
2018-10-18T07:08:12.004Z,32.60
2018-10-18T07:10:39.846Z,24.73
2018-10-18T07:13:07.654Z,24.43
2018-10-18T07:15:35.429Z,25.80
2018-10-18T07:18:03.312Z,31.07
2018-10-18T07:20:31.091Z,23.13
2018-10-18T07:22:59.021Z,27.03
2018-10-18T07:25:26.995Z,26.20
2018-10-18T07:27:54.752Z,30.80
2018-10-18T07:30:22.544Z,25.90
2018-10-18T07:32:50.351Z,24.83
2018-10-18T07:35:18.207Z,23.63
2018-10-18T07:37:45.961Z,22.63
2018-10-18T07:40:14.920Z,22.60
2018-10-18T07:42:42.725Z,25.20
2018-10-18T07:45:11.772Z,22.90
2018-10-18T07:47:39.729Z,22.23
2018-10-18T07:50:07.812Z,26.33
2018-10-18T07:52:35.891Z,27.80
2018-10-18T07:55:03.956Z,25.87
2018-10-18T07:57:31.752Z,33.40
2018-10-18T07:59:59.660Z,30.30
2018-10-18T08:02:27.387Z,36.37
2018-10-18T08:04:55.233Z,35.00
2018-10-18T08:07:23.084Z,26.90
2018-10-18T08:09:50.925Z,26.63
2018-10-18T08:12:18.732Z,35.67
2018-10-18T08:14:46.469Z,33.40
2018-10-18T08:17:14.305Z,25.90
2018-10-18T08:19:42.081Z,32.53
2018-10-18T08:22:09.907Z,39.20
2018-10-18T08:24:37.784Z,38.80
2018-10-18T08:27:05.661Z,42.50
2018-10-18T08:29:33.660Z,36.40
2018-10-18T08:32:01.255Z,38.27
2018-10-18T08:34:29.081Z,44.33
2018-10-18T08:36:56.926Z,40.23
2018-10-18T08:39:24.740Z,40.23
2018-10-18T08:41:52.533Z,43.37
2018-10-18T08:44:20.324Z,44.90
2018-10-18T08:46:48.143Z,40.80
2018-10-18T08:49:16.085Z,45.23
2018-10-18T08:51:44.144Z,41.80
2018-10-18T08:54:11.984Z,40.50
2018-10-18T08:56:39.822Z,45.20
2018-10-18T09:01:16.013Z,45.80
2018-10-18T09:03:43.880Z,43.27
2018-10-18T09:06:11.680Z,47.33
2018-10-18T09:08:39.456Z,43.33
2018-10-18T09:11:07.337Z,37.70
2018-10-18T09:13:35.140Z,46.67
2018-10-18T09:16:02.976Z,41.70
2018-10-18T09:18:30.752Z,42.27
2018-10-18T09:20:58.475Z,46.20
2018-10-18T09:23:26.304Z,43.70
2018-10-18T09:25:54.050Z,46.43
2018-10-18T09:28:22.320Z,46.60
2018-10-18T09:30:50.207Z,53.40
2018-10-18T09:33:18.002Z,40.97
2018-10-18T09:35:45.803Z,43.07
2018-10-18T09:38:14.859Z,44.30
2018-10-18T09:40:42.748Z,40.20
2018-10-18T09:43:10.639Z,40.97
2018-10-18T09:45:38.371Z,37.93
2018-10-18T09:48:06.195Z,40.83
2018-10-18T09:50:33.960Z,42.90
2018-10-18T09:53:01.829Z,40.10
2018-10-18T09:55:29.656Z,42.33
2018-10-18T09:57:57.414Z,34.50
2018-10-18T10:00:30.823Z,40.57
2018-10-18T10:03:04.205Z,44.53
2018-10-18T10:05:32.995Z,36.97
2018-10-18T10:08:00.820Z,40.87
2018-10-18T10:10:28.684Z,34.73
2018-10-18T10:12:56.495Z,35.00
2018-10-18T10:15:24.276Z,39.20
2018-10-18T10:17:52.061Z,35.20
2018-10-18T10:20:19.852Z,34.00
2018-10-18T10:22:47.657Z,38.80
2018-10-18T10:25:15.547Z,32.60
2018-10-18T10:27:45.483Z,37.20
2018-10-18T10:30:13.426Z,35.00
2018-10-18T10:32:41.305Z,31.87
2018-10-18T10:35:09.268Z,34.50
2018-10-18T10:37:38.177Z,35.00
2018-10-18T10:40:07.503Z,34.97
2018-10-18T10:42:35.199Z,36.77
2018-10-18T10:45:03.135Z,36.17
2018-10-18T10:47:30.979Z,35.83
2018-10-18T10:49:58.824Z,37.53
2018-10-18T10:52:26.617Z,39.70
2018-10-18T10:54:54.405Z,31.27
2018-10-18T10:57:22.188Z,32.37
2018-10-18T10:59:49.951Z,28.10
2018-10-18T11:02:17.929Z,35.37
2018-10-18T11:04:45.570Z,33.67
2018-10-18T11:07:13.413Z,34.57
2018-10-18T11:09:41.488Z,30.40
2018-10-18T11:12:09.273Z,32.13
2018-10-18T11:14:37.034Z,27.53
2018-10-18T11:17:04.933Z,21.87
2018-10-18T11:19:32.652Z,31.70
2018-10-18T11:22:00.491Z,26.60
2018-10-18T11:24:29.344Z,37.90
2018-10-18T11:26:57.214Z,25.53
2018-10-18T11:29:24.984Z,27.47
2018-10-18T11:31:52.826Z,26.53
2018-10-18T11:34:21.305Z,31.30
2018-10-18T11:36:49.042Z,35.30
2018-10-18T11:39:17.091Z,25.93
2018-10-18T11:41:44.914Z,27.50
2018-10-18T11:44:12.742Z,24.63
2018-10-18T11:46:40.469Z,29.43
2018-10-18T11:49:08.244Z,28.27
2018-10-18T11:51:36.160Z,27.20
2018-10-18T11:54:04.271Z,29.03
2018-10-18T11:56:31.973Z,28.97
2018-10-18T11:58:59.765Z,27.50
2018-10-18T12:01:28.138Z,28.13
2018-10-18T12:03:55.910Z,26.67
2018-10-18T12:06:23.761Z,26.00
2018-10-18T12:08:51.587Z,25.60
2018-10-18T12:11:19.539Z,29.80
2018-10-18T12:13:47.495Z,25.37
2018-10-18T12:16:15.388Z,28.10
2018-10-18T12:18:43.457Z,23.07
2018-10-18T12:21:11.300Z,26.33
2018-10-18T12:23:39.127Z,32.40
2018-10-18T12:26:06.937Z,28.77
2018-10-18T12:28:34.666Z,24.50
2018-10-18T12:31:02.512Z,25.03
2018-10-18T12:33:30.236Z,22.40
2018-10-18T12:35:58.035Z,25.00
2018-10-18T12:38:25.882Z,28.97
2018-10-18T12:40:53.720Z,27.43
2018-10-18T12:43:21.556Z,26.20
2018-10-18T12:45:49.377Z,25.77
2018-10-18T12:48:17.489Z,34.90
2018-10-18T12:50:48.500Z,31.83
2018-10-18T12:53:16.315Z,32.67
2018-10-18T12:55:44.152Z,26.67
2018-10-18T12:58:11.908Z,27.73
2018-10-18T13:00:39.695Z,29.23
2018-10-18T13:03:07.437Z,25.00
2018-10-18T13:05:35.207Z,29.13
2018-10-18T13:08:03.052Z,28.50
2018-10-18T13:10:30.823Z,28.47
2018-10-18T13:12:58.659Z,27.27
2018-10-18T13:15:26.574Z,25.67
2018-10-18T13:17:54.348Z,24.97
2018-10-18T13:20:22.140Z,25.60
2018-10-18T13:22:49.926Z,28.97
2018-10-18T13:25:17.835Z,25.17
2018-10-18T13:27:45.547Z,26.50
2018-10-18T13:33:05.611Z,32.60
2018-10-18T13:35:33.305Z,29.20
2018-10-18T13:38:00.773Z,26.77
2018-10-18T13:40:28.264Z,28.63
2018-10-18T13:42:55.748Z,30.00
2018-10-18T13:45:23.248Z,29.27
2018-10-18T13:47:54.530Z,32.87
2018-10-18T13:50:22.007Z,27.83
2018-10-18T13:52:49.523Z,24.83
2018-10-18T13:55:17.047Z,34.83
2018-10-18T13:57:44.522Z,29.90
2018-10-18T14:00:20.863Z,32.93
2018-10-18T14:02:48.839Z,31.83
2018-10-18T14:05:16.467Z,26.10
2018-10-18T14:07:43.972Z,27.30
2018-10-18T14:10:11.563Z,28.50
2018-10-18T14:12:39.083Z,32.80
2018-10-18T14:15:06.895Z,29.77
2018-10-18T14:17:34.543Z,28.50
2018-10-18T14:20:02.211Z,29.40
2018-10-18T14:22:29.650Z,28.97
2018-10-18T14:24:57.299Z,32.13
2018-10-18T14:27:24.786Z,30.60
2018-10-18T14:29:52.303Z,32.03
2018-10-18T14:32:19.975Z,33.93
2018-10-18T14:34:47.323Z,33.93
2018-10-18T14:37:14.839Z,30.83
2018-10-18T14:39:42.323Z,31.40
2018-10-18T14:42:09.795Z,35.87
2018-10-18T14:44:37.378Z,32.20
2018-10-18T14:47:04.951Z,35.07
2018-10-18T14:49:32.442Z,33.87
2018-10-18T14:51:59.971Z,30.63
2018-10-18T14:54:27.390Z,24.87
2018-10-18T14:56:54.875Z,25.60
2018-10-18T14:59:22.354Z,28.60
2018-10-18T15:01:49.827Z,30.07
2018-10-18T15:04:17.346Z,26.50
2018-10-18T15:06:44.833Z,25.60
2018-10-18T15:09:12.424Z,30.40
2018-10-18T15:11:40.031Z,29.07
2018-10-18T15:14:11.679Z,38.70
2018-10-18T15:16:39.336Z,30.00
2018-10-18T15:19:07.631Z,26.83
2018-10-18T15:21:35.278Z,24.03
2018-10-18T15:24:04.227Z,31.97
2018-10-18T15:26:31.946Z,24.67
2018-10-18T15:28:59.288Z,27.83
2018-10-18T15:31:26.720Z,27.97
2018-10-18T15:33:54.239Z,26.77
2018-10-18T15:36:21.703Z,25.90
2018-10-18T15:38:49.329Z,30.53
2018-10-18T15:41:16.842Z,27.93
2018-10-18T15:43:44.216Z,26.17
2018-10-18T15:46:11.711Z,27.80
2018-10-18T15:48:39.211Z,27.60
2018-10-18T15:51:07.135Z,32.67
2018-10-18T15:53:34.968Z,25.60
2018-10-18T15:56:02.730Z,30.33
2018-10-18T15:58:33.787Z,28.70
2018-10-18T16:01:01.585Z,25.30
2018-10-18T16:03:29.440Z,25.33
2018-10-18T16:05:57.199Z,27.10
2018-10-18T16:08:24.987Z,28.80
2018-10-18T16:10:52.803Z,25.80
2018-10-18T16:13:20.516Z,21.87
2018-10-18T16:15:48.340Z,26.33
2018-10-18T16:18:16.140Z,28.20
2018-10-18T16:20:44.009Z,24.37
2018-10-18T16:23:11.842Z,25.50
2018-10-18T16:25:39.624Z,22.90
2018-10-18T16:28:07.404Z,27.43
2018-10-18T16:30:35.252Z,28.60
2018-10-18T16:33:03.117Z,25.30
2018-10-18T16:35:30.920Z,28.07
2018-10-18T16:37:58.758Z,30.50
2018-10-18T16:40:26.563Z,31.77
2018-10-18T16:42:54.367Z,29.07
2018-10-18T16:45:22.228Z,29.97
2018-10-18T16:47:50.549Z,31.90
2018-10-18T16:50:21.417Z,30.10
2018-10-18T16:52:49.203Z,32.50
2018-10-18T16:55:18.205Z,31.67
2018-10-18T16:57:46.253Z,34.30
2018-10-18T17:00:14.110Z,40.93
2018-10-18T17:02:41.864Z,45.27
2018-10-18T17:05:09.607Z,37.00
2018-10-18T17:07:37.389Z,32.20
2018-10-18T17:10:05.718Z,30.17
2018-10-18T17:12:33.500Z,23.77
2018-10-18T17:15:01.285Z,26.07
2018-10-18T17:17:29.140Z,28.53
2018-10-18T17:19:56.942Z,27.20
2018-10-18T17:22:24.755Z,30.83
2018-10-18T17:24:52.592Z,27.53
2018-10-18T17:27:20.585Z,23.30
2018-10-18T17:31:56.091Z,24.00
2018-10-18T17:34:23.908Z,29.00
2018-10-18T17:36:51.695Z,26.00
2018-10-18T17:39:19.572Z,28.20
2018-10-18T17:41:51.233Z,27.20
2018-10-18T17:44:19.072Z,25.30
2018-10-18T17:46:50.457Z,35.07
2018-10-18T17:49:18.308Z,24.93
2018-10-18T17:51:46.132Z,29.80
2018-10-18T17:54:14.015Z,28.80
2018-10-18T17:56:41.841Z,29.37
2018-10-18T18:00:13.599Z,27.70
2018-10-18T18:02:41.608Z,25.00
2018-10-18T18:05:10.487Z,25.87
2018-10-18T18:07:38.322Z,29.40
2018-10-18T18:10:08.258Z,26.13
2018-10-18T18:12:36.700Z,27.03
2018-10-18T18:15:05.329Z,23.20
2018-10-18T18:17:33.129Z,24.43
2018-10-18T18:20:00.941Z,24.30
2018-10-18T18:22:28.960Z,24.17
2018-10-18T18:24:57.218Z,22.50
2018-10-18T18:27:24.934Z,27.83
2018-10-18T18:29:52.728Z,22.33
2018-10-18T18:32:20.586Z,32.83
2018-10-18T18:34:48.345Z,29.40
2018-10-18T18:37:16.115Z,22.50
2018-10-18T18:39:43.847Z,28.40
2018-10-18T18:42:11.562Z,24.63
2018-10-18T18:44:39.304Z,27.40
2018-10-18T18:47:07.074Z,24.00
2018-10-18T18:49:34.986Z,29.23
2018-10-18T18:52:02.795Z,25.87
2018-10-18T18:54:31.068Z,22.83
2018-10-18T18:56:59.175Z,23.80
2018-10-18T18:59:27.605Z,37.33
2018-10-18T19:01:56.665Z,31.63
2018-10-18T19:04:25.302Z,30.77
2018-10-18T19:06:53.560Z,28.23
2018-10-18T19:09:21.716Z,29.30
2018-10-18T19:11:50.361Z,27.43
2018-10-18T19:14:18.284Z,30.17
2018-10-18T19:16:46.062Z,24.10
2018-10-18T19:19:14.189Z,26.60
2018-10-18T19:21:42.297Z,28.67
2018-10-18T19:24:10.937Z,22.80
2018-10-18T19:26:39.499Z,28.53
2018-10-18T19:29:08.258Z,23.87
2018-10-18T19:31:36.358Z,23.77
2018-10-18T19:34:05.212Z,25.03
2018-10-18T19:36:33.035Z,23.90
2018-10-18T19:39:01.390Z,31.33
2018-10-18T19:41:31.309Z,28.67
2018-10-18T19:44:05.090Z,29.13
2018-10-18T19:46:34.530Z,32.10
2018-10-18T19:49:03.795Z,27.77
2018-10-18T19:51:32.938Z,27.23
2018-10-18T19:54:02.484Z,25.70
2018-10-18T19:56:31.598Z,31.93
2018-10-18T19:59:00.324Z,25.73
2018-10-18T20:01:28.341Z,28.03
2018-10-18T20:03:56.118Z,27.50
2018-10-18T20:06:24.064Z,19.60
2018-10-18T20:08:51.771Z,24.30
2018-10-18T20:11:19.529Z,27.67
2018-10-18T20:13:47.297Z,23.93
2018-10-18T20:16:14.991Z,29.87
2018-10-18T20:18:42.700Z,24.17
2018-10-18T20:21:10.478Z,31.50
2018-10-18T20:23:38.127Z,27.23
2018-10-18T20:26:06.255Z,25.73
2018-10-18T20:28:33.720Z,27.03
2018-10-18T20:31:01.397Z,24.43
2018-10-18T20:33:29.247Z,27.37
2018-10-18T20:35:56.968Z,28.57
2018-10-18T20:38:24.692Z,27.63
2018-10-18T20:40:52.509Z,29.10
2018-10-18T20:43:20.275Z,25.70
2018-10-18T20:45:48.051Z,21.30
2018-10-18T20:48:15.759Z,26.83
2018-10-18T20:50:43.463Z,29.13
2018-10-18T20:53:11.178Z,31.30
2018-10-18T20:55:38.856Z,31.37
2018-10-18T20:58:06.589Z,25.40
2018-10-18T21:00:34.310Z,29.10
2018-10-18T21:03:02.060Z,27.87
2018-10-18T21:05:29.722Z,26.20
2018-10-18T21:07:57.367Z,29.97
2018-10-18T21:10:25.082Z,34.30
2018-10-18T21:12:52.826Z,27.37
2018-10-18T21:15:20.447Z,27.80
2018-10-18T21:17:48.153Z,24.47
2018-10-18T21:20:15.840Z,31.43
2018-10-18T21:22:43.500Z,23.33
2018-10-18T21:25:11.203Z,19.97
2018-10-18T21:27:38.972Z,26.37
2018-10-18T21:30:07.236Z,22.17
2018-10-18T21:32:35.046Z,25.20
2018-10-18T21:35:02.820Z,19.87
2018-10-18T21:37:30.529Z,17.90
2018-10-18T21:39:58.360Z,19.80
2018-10-18T21:42:26.060Z,18.40
2018-10-18T21:44:54.179Z,22.20
2018-10-18T21:47:22.112Z,25.13
2018-10-18T21:49:49.877Z,23.83
2018-10-18T21:52:17.641Z,25.00
2018-10-18T21:54:45.361Z,17.00
2018-10-18T21:57:13.288Z,20.77
2018-10-18T21:59:40.861Z,17.43
2018-10-18T22:02:08.532Z,21.40
2018-10-18T22:04:36.264Z,19.90
2018-10-18T22:07:04.043Z,17.73
2018-10-18T22:09:31.755Z,19.03
2018-10-18T22:11:59.938Z,18.60
2018-10-18T22:14:30.959Z,19.83
2018-10-18T22:16:58.590Z,15.57
2018-10-18T22:19:26.288Z,13.90
2018-10-18T22:21:57.388Z,14.23
2018-10-18T22:24:25.152Z,21.30
2018-10-18T22:26:52.903Z,14.50
2018-10-18T22:29:20.590Z,14.00
2018-10-18T22:31:48.360Z,18.80
2018-10-18T22:34:16.095Z,15.80
2018-10-18T22:36:43.814Z,13.53
2018-10-18T22:39:11.617Z,14.40
2018-10-18T22:41:39.689Z,13.90
2018-10-18T22:44:07.915Z,16.73
2018-10-18T22:46:35.791Z,14.33
2018-10-18T22:49:03.727Z,16.60
2018-10-18T22:51:31.484Z,14.40
2018-10-18T22:53:59.828Z,11.87
2018-10-18T22:56:27.584Z,12.47
2018-10-18T22:58:55.315Z,11.87
2018-10-18T23:01:23.008Z,11.37
2018-10-18T23:03:50.644Z,10.93
2018-10-18T23:06:18.413Z,11.20
2018-10-18T23:08:46.075Z,13.07
2018-10-18T23:11:13.888Z,10.10
2018-10-18T23:13:41.585Z,8.80
2018-10-18T23:16:09.332Z,8.40
2018-10-18T23:18:37.044Z,9.43
2018-10-18T23:21:05.256Z,10.00
2018-10-18T23:23:32.980Z,8.97
2018-10-18T23:26:01.064Z,9.03
2018-10-18T23:28:28.852Z,10.90
2018-10-18T23:30:56.595Z,6.47
2018-10-18T23:33:24.367Z,10.93
2018-10-18T23:35:52.100Z,8.40
2018-10-18T23:38:19.845Z,9.90
2018-10-18T23:40:47.655Z,6.70
2018-10-18T23:43:15.426Z,9.83
2018-10-18T23:45:43.184Z,7.50
2018-10-18T23:48:10.916Z,8.97
2018-10-18T23:50:38.648Z,10.93
2018-10-18T23:53:06.373Z,6.40
2018-10-18T23:55:34.096Z,7.33
2018-10-18T23:58:01.828Z,8.53
